createdAt,value
2022-08-31T00:01:31.116Z,94486.53
2022-08-31T00:04:03.554Z,94490.78
2022-08-31T00:06:32.627Z,94487.13
2022-08-31T00:09:00.896Z,94486.22
2022-08-31T00:11:30.971Z,94487.34
2022-08-31T00:14:00.674Z,94493.09
2022-08-31T00:16:32.607Z,94490.06
2022-08-31T00:19:00.815Z,94490.06
2022-08-31T00:21:29.097Z,94488.59
2022-08-31T00:23:57.269Z,94491.69
2022-08-31T00:26:26.220Z,94491.59
2022-08-31T00:28:54.708Z,94487.22
2022-08-31T00:31:22.888Z,94484.78
2022-08-31T00:33:53.328Z,94494.66
2022-08-31T00:36:23.877Z,94496.59
2022-08-31T00:38:52.244Z,94493.97
2022-08-31T00:41:22.716Z,94488.78
2022-08-31T00:43:53.346Z,94503.09
2022-08-31T00:46:23.213Z,94500.31
2022-08-31T00:49:00.698Z,94491.59
2022-08-31T00:51:30.157Z,94502.63
2022-08-31T00:53:58.994Z,94499.34
2022-08-31T00:56:27.803Z,94497.97
2022-08-31T00:58:56.191Z,94499.03
2022-08-31T01:01:24.645Z,94501.44
2022-08-31T01:03:54.177Z,94497.44
2022-08-31T01:06:23.446Z,94498.22
2022-08-31T01:08:51.912Z,94490.22
2022-08-31T01:11:22.056Z,94486.22
2022-08-31T01:13:50.206Z,94494.91
2022-08-31T01:16:23.532Z,94488.06
2022-08-31T01:18:55.341Z,94494.34
2022-08-31T01:21:29.632Z,94492.59
2022-08-31T01:24:03.090Z,94496.63
2022-08-31T01:26:33.282Z,94490.00
2022-08-31T01:29:04.853Z,94482.44
2022-08-31T01:31:36.661Z,94487.38
2022-08-31T01:34:05.416Z,94490.81
2022-08-31T01:36:34.819Z,94494.03
2022-08-31T01:39:04.798Z,94488.16
2022-08-31T01:41:32.939Z,94491.38
2022-08-31T01:44:00.979Z,94489.88
2022-08-31T01:46:28.987Z,94490.91
2022-08-31T01:48:57.021Z,94487.13
2022-08-31T01:51:25.050Z,94480.50
2022-08-31T01:53:54.561Z,94484.75
2022-08-31T01:56:26.390Z,94474.91
2022-08-31T01:58:54.476Z,94475.94
2022-08-31T02:01:32.878Z,94471.38
2022-08-31T02:04:02.684Z,94473.06
2022-08-31T02:06:30.684Z,94474.56
2022-08-31T02:08:58.819Z,94472.06
2022-08-31T02:11:28.344Z,94470.44
2022-08-31T02:13:56.350Z,94473.22
2022-08-31T02:16:24.701Z,94469.75
2022-08-31T02:18:53.233Z,94470.47
2022-08-31T02:21:21.332Z,94463.66
2022-08-31T02:23:49.342Z,94466.03
2022-08-31T02:26:17.743Z,94464.09
2022-08-31T02:28:47.754Z,94462.59
2022-08-31T02:31:16.632Z,94458.72
2022-08-31T02:33:44.756Z,94455.97
2022-08-31T02:36:13.248Z,94458.56
2022-08-31T02:38:42.073Z,94459.50
2022-08-31T02:41:11.069Z,94454.09
2022-08-31T02:43:39.098Z,94456.38
2022-08-31T02:46:08.705Z,94463.34
2022-08-31T02:48:37.197Z,94458.41
2022-08-31T02:51:07.545Z,94456.00
2022-08-31T02:53:36.225Z,94450.75
2022-08-31T02:56:04.796Z,94447.53
2022-08-31T02:58:32.785Z,94444.84
2022-08-31T03:01:00.816Z,94448.94
2022-08-31T03:03:30.362Z,94447.69
2022-08-31T03:05:58.455Z,94445.66
2022-08-31T03:08:26.491Z,94448.16
2022-08-31T03:10:55.575Z,94452.94
2022-08-31T03:13:23.583Z,94448.47
2022-08-31T03:15:52.487Z,94447.88
2022-08-31T03:18:20.614Z,94448.53
2022-08-31T03:20:50.024Z,94447.84
2022-08-31T03:23:18.074Z,94451.31
2022-08-31T03:25:46.140Z,94444.22
2022-08-31T03:28:14.111Z,94438.28
2022-08-31T03:30:43.057Z,94431.84
2022-08-31T03:33:11.215Z,94437.69
2022-08-31T03:35:43.706Z,94432.66
2022-08-31T03:38:14.100Z,94431.78
2022-08-31T03:40:43.563Z,94442.66
2022-08-31T03:43:12.053Z,94444.75
2022-08-31T03:45:40.394Z,94437.69
2022-08-31T03:48:12.523Z,94436.19
2022-08-31T03:50:41.958Z,94433.34
2022-08-31T03:53:11.464Z,94441.38
2022-08-31T03:55:43.648Z,94443.88
2022-08-31T03:58:12.485Z,94441.59
2022-08-31T04:00:41.543Z,94437.44
2022-08-31T04:03:09.618Z,94441.56
2022-08-31T04:05:42.672Z,94439.50
2022-08-31T04:08:10.684Z,94440.97
2022-08-31T04:10:41.691Z,94442.66
2022-08-31T04:13:09.798Z,94442.44
2022-08-31T04:15:38.987Z,94444.91
2022-08-31T04:18:07.716Z,94440.25
2022-08-31T04:20:36.511Z,94442.13
2022-08-31T04:23:05.053Z,94444.75
2022-08-31T04:25:33.212Z,94448.94
2022-08-31T04:28:03.777Z,94448.78
2022-08-31T04:30:31.887Z,94439.72
2022-08-31T04:33:02.175Z,94445.91
2022-08-31T04:35:30.254Z,94451.91
2022-08-31T04:37:58.292Z,94451.31
2022-08-31T04:40:27.801Z,94451.81
2022-08-31T04:42:55.965Z,94458.00
2022-08-31T04:45:25.512Z,94457.91
2022-08-31T04:47:53.813Z,94463.66
2022-08-31T04:50:22.677Z,94468.81
2022-08-31T04:53:03.961Z,94456.56
2022-08-31T04:55:33.005Z,94468.94
2022-08-31T04:58:00.965Z,94472.13
2022-08-31T05:00:30.307Z,94461.59
2022-08-31T05:02:58.386Z,94456.94
2022-08-31T05:05:26.435Z,94457.53
2022-08-31T05:07:54.497Z,94469.91
2022-08-31T05:10:24.698Z,94451.13
2022-08-31T05:12:52.947Z,94453.66
2022-08-31T05:15:20.907Z,94455.03
2022-08-31T05:17:50.401Z,94452.09
2022-08-31T05:20:18.589Z,94452.31
2022-08-31T05:22:46.739Z,94457.97
2022-08-31T05:25:14.828Z,94457.59
2022-08-31T05:27:43.234Z,94452.78
2022-08-31T05:30:12.436Z,94449.47
2022-08-31T05:32:40.448Z,94455.81
2022-08-31T05:35:11.049Z,94450.53
2022-08-31T05:37:39.334Z,94443.88
2022-08-31T05:40:08.794Z,94449.72
2022-08-31T05:42:37.623Z,94445.38
2022-08-31T05:45:06.327Z,94437.44
2022-08-31T05:47:34.428Z,94445.00
2022-08-31T05:50:02.433Z,94447.41
2022-08-31T05:52:37.599Z,94440.53
2022-08-31T05:55:06.282Z,94447.84
2022-08-31T05:57:34.277Z,94439.47
2022-08-31T06:00:02.541Z,94446.25
2022-08-31T06:02:31.538Z,94438.19
2022-08-31T06:04:59.661Z,94443.81
2022-08-31T06:07:28.019Z,94433.25
2022-08-31T06:09:57.820Z,94441.31
2022-08-31T06:12:26.628Z,94450.94
2022-08-31T06:14:55.428Z,94446.47
2022-08-31T06:17:24.297Z,94447.94
2022-08-31T06:19:52.427Z,94449.63
2022-08-31T06:22:20.439Z,94441.78
2022-08-31T06:24:48.460Z,94435.16
2022-08-31T06:27:18.294Z,94436.72
2022-08-31T06:29:46.820Z,94443.19
2022-08-31T06:32:15.651Z,94436.34
2022-08-31T06:34:44.129Z,94442.00
2022-08-31T06:37:18.486Z,94440.53
2022-08-31T06:39:47.799Z,94445.56
2022-08-31T06:42:17.364Z,94439.97
2022-08-31T06:44:45.327Z,94443.00
2022-08-31T06:47:13.465Z,94455.59
2022-08-31T06:49:41.493Z,94448.00
2022-08-31T06:52:09.500Z,94452.28
2022-08-31T06:54:37.567Z,94453.63
2022-08-31T06:57:05.752Z,94449.53
2022-08-31T06:59:35.424Z,94455.81
2022-08-31T07:02:03.894Z,94454.19
2022-08-31T07:04:34.047Z,94453.94
2022-08-31T07:07:02.258Z,94469.94
2022-08-31T07:09:30.596Z,94458.25
2022-08-31T07:11:58.655Z,94457.88
2022-08-31T07:14:28.774Z,94471.25
2022-08-31T07:16:59.782Z,94466.59
2022-08-31T07:19:28.459Z,94473.25
2022-08-31T07:21:58.302Z,94463.28
2022-08-31T07:24:30.288Z,94468.78
2022-08-31T07:27:00.660Z,94480.97
2022-08-31T07:29:33.101Z,94476.25
2022-08-31T07:32:02.559Z,94486.38
2022-08-31T07:34:33.944Z,94478.03
2022-08-31T07:37:19.915Z,94480.78
2022-08-31T07:40:08.069Z,94479.69
2022-08-31T07:42:39.341Z,94472.41
2022-08-31T07:45:12.757Z,94486.19
2022-08-31T07:47:47.151Z,94469.28
2022-08-31T07:50:16.358Z,94477.06
2022-08-31T07:52:48.482Z,94485.94
2022-08-31T07:55:19.097Z,94487.03
2022-08-31T07:57:47.252Z,94479.97
2022-08-31T08:00:22.177Z,94487.25
2022-08-31T08:02:53.426Z,94486.22
2022-08-31T08:05:26.963Z,94485.81
2022-08-31T08:08:13.438Z,94477.72
2022-08-31T08:10:52.187Z,94477.56
2022-08-31T08:13:22.576Z,94474.97
2022-08-31T08:15:52.227Z,94481.66
2022-08-31T08:18:22.255Z,94489.41
2022-08-31T08:20:52.287Z,94491.50
2022-08-31T08:23:26.878Z,94491.59
2022-08-31T08:25:57.798Z,94488.22
2022-08-31T08:28:39.329Z,94487.44
2022-08-31T08:31:12.107Z,94501.50
2022-08-31T08:33:41.859Z,94500.75
2022-08-31T08:36:10.425Z,94502.94
2022-08-31T08:38:42.458Z,94510.38
2022-08-31T08:41:14.325Z,94506.69
2022-08-31T08:43:49.969Z,94504.63
2022-08-31T08:46:36.020Z,94505.47
2022-08-31T08:49:18.117Z,94502.56
2022-08-31T08:51:48.067Z,94507.09
2022-08-31T08:54:29.873Z,94494.84
2022-08-31T08:56:59.682Z,94507.34
2022-08-31T08:59:30.433Z,94504.16
2022-08-31T09:02:06.603Z,94494.59
2022-08-31T09:04:52.707Z,94489.53
2022-08-31T09:07:37.761Z,94491.13
2022-08-31T09:10:18.082Z,94493.53
2022-08-31T09:12:51.688Z,94488.19
2022-08-31T09:15:37.496Z,94490.84
2022-08-31T09:18:16.238Z,94479.66
2022-08-31T09:21:02.391Z,94480.19
2022-08-31T09:23:34.524Z,94472.78
2022-08-31T09:26:08.255Z,94476.19
2022-08-31T09:28:43.549Z,94467.44
2022-08-31T09:31:32.939Z,94471.03
2022-08-31T09:34:02.137Z,94482.78
2022-08-31T09:36:38.800Z,94468.88
2022-08-31T09:39:19.160Z,94475.56
2022-08-31T09:41:48.937Z,94472.06
2022-08-31T09:44:33.964Z,94466.91
2022-08-31T09:47:05.325Z,94459.38
2022-08-31T09:49:36.848Z,94452.13
2022-08-31T09:52:50.304Z,94441.09
2022-08-31T09:55:21.924Z,94437.66
2022-08-31T09:57:57.462Z,94424.00
2022-08-31T10:00:34.417Z,94433.00
2022-08-31T10:03:14.267Z,94414.13
2022-08-31T10:05:44.575Z,94422.19
2022-08-31T10:08:29.289Z,94418.75
2022-08-31T10:11:00.634Z,94431.28
2022-08-31T10:13:36.359Z,94426.03
2022-08-31T10:16:14.548Z,94418.09
2022-08-31T10:18:59.099Z,94415.97
2022-08-31T10:21:37.149Z,94411.19
2022-08-31T10:24:20.702Z,94409.00
2022-08-31T10:26:55.143Z,94409.91
2022-08-31T10:29:32.918Z,94391.94
2022-08-31T10:32:06.083Z,94394.91
2022-08-31T10:34:57.362Z,94395.19
2022-08-31T10:37:31.573Z,94386.13
2022-08-31T10:40:07.981Z,94387.03
2022-08-31T10:42:40.789Z,94388.78
2022-08-31T10:45:18.647Z,94404.69
2022-08-31T10:47:49.747Z,94403.91
2022-08-31T10:50:28.623Z,94412.94
2022-08-31T10:53:07.735Z,94408.47
2022-08-31T10:55:46.730Z,94409.22
2022-08-31T10:58:23.158Z,94409.47
2022-08-31T11:00:56.192Z,94407.06
2022-08-31T11:03:44.957Z,94420.81
2022-08-31T11:06:21.920Z,94429.47
2022-08-31T11:08:59.627Z,94438.47
2022-08-31T11:11:42.499Z,94433.34
2022-08-31T11:14:45.388Z,94440.63
2022-08-31T11:17:32.233Z,94452.63
2022-08-31T11:20:24.216Z,94443.78
2022-08-31T11:23:16.628Z,94445.09
2022-08-31T11:26:16.023Z,94450.72
2022-08-31T11:28:50.159Z,94443.56
2022-08-31T11:31:24.123Z,94451.16
2022-08-31T11:34:15.183Z,94430.97
2022-08-31T11:36:51.106Z,94422.88
2022-08-31T11:39:36.767Z,94413.72
2022-08-31T11:42:12.447Z,94409.13
2022-08-31T11:45:02.302Z,94399.91
2022-08-31T11:47:46.760Z,94411.25
2022-08-31T11:51:04.017Z,94413.84
2022-08-31T11:53:38.228Z,94410.81
2022-08-31T11:56:07.079Z,94414.94
2022-08-31T11:58:39.764Z,94410.53
2022-08-31T12:01:36.309Z,94403.25
2022-08-31T12:04:06.584Z,94397.94
2022-08-31T12:07:12.254Z,94411.03
2022-08-31T12:10:24.104Z,94408.00
2022-08-31T12:13:18.742Z,94406.94
2022-08-31T12:16:09.765Z,94415.81
2022-08-31T12:18:59.091Z,94422.03
2022-08-31T12:21:52.399Z,94421.78
2022-08-31T12:24:31.783Z,94426.41
2022-08-31T12:27:15.088Z,94433.88
2022-08-31T12:29:43.635Z,94437.63
2022-08-31T12:32:23.365Z,94447.72
2022-08-31T12:35:05.347Z,94454.91
2022-08-31T12:37:35.861Z,94458.44
2022-08-31T12:40:11.387Z,94450.19
2022-08-31T12:42:45.011Z,94455.22
2022-08-31T12:45:16.370Z,94460.53
2022-08-31T12:47:52.675Z,94471.72
2022-08-31T12:50:30.407Z,94482.34
2022-08-31T12:53:22.569Z,94468.25
2022-08-31T12:55:57.970Z,94482.31
2022-08-31T12:58:47.070Z,94466.84
2022-08-31T13:01:21.030Z,94468.44
2022-08-31T13:03:54.143Z,94462.53
2022-08-31T13:06:27.810Z,94458.81
2022-08-31T13:08:56.670Z,94443.47
2022-08-31T13:11:35.006Z,94436.00
2022-08-31T13:14:12.589Z,94444.00
2022-08-31T13:16:42.665Z,94448.28
2022-08-31T13:19:19.334Z,94440.31
2022-08-31T13:21:57.115Z,94433.66
2022-08-31T13:24:30.963Z,94439.50
2022-08-31T13:27:12.349Z,94446.75
2022-08-31T13:29:45.483Z,94447.78
2022-08-31T13:32:16.428Z,94434.22
2022-08-31T13:34:44.437Z,94424.66
2022-08-31T13:37:21.013Z,94428.34
2022-08-31T13:39:49.184Z,94429.13
2022-08-31T13:42:35.513Z,94423.22
2022-08-31T13:45:08.210Z,94428.69
2022-08-31T13:47:47.535Z,94420.22
2022-08-31T13:50:29.156Z,94425.84
2022-08-31T13:55:49.836Z,94423.63
2022-08-31T13:58:27.914Z,94434.19
2022-08-31T14:01:19.883Z,94439.88
2022-08-31T14:03:53.566Z,94430.97
2022-08-31T14:06:27.472Z,94428.69
2022-08-31T14:09:03.428Z,94427.97
2022-08-31T14:11:33.815Z,94439.50
2022-08-31T14:14:08.273Z,94446.69
2022-08-31T14:16:39.862Z,94443.81
2022-08-31T14:19:12.142Z,94446.16
2022-08-31T14:21:43.576Z,94440.81
2022-08-31T14:24:13.351Z,94442.59
2022-08-31T14:26:42.927Z,94448.63
2022-08-31T14:29:12.732Z,94447.50
2022-08-31T14:31:49.469Z,94457.75
2022-08-31T14:34:22.514Z,94459.06
2022-08-31T14:36:54.325Z,94465.41
2022-08-31T14:39:27.365Z,94469.53
2022-08-31T14:41:57.381Z,94470.59
2022-08-31T14:44:29.323Z,94477.41
2022-08-31T14:46:57.643Z,94476.25
2022-08-31T14:49:25.994Z,94486.88
2022-08-31T14:51:55.395Z,94490.84
2022-08-31T14:54:24.906Z,94487.91
2022-08-31T14:56:54.494Z,94495.81
2022-08-31T14:59:22.461Z,94495.16
2022-08-31T15:01:51.039Z,94487.88
2022-08-31T15:04:21.690Z,94496.41
2022-08-31T15:06:52.646Z,94502.53
2022-08-31T15:09:21.740Z,94484.06
2022-08-31T15:11:51.529Z,94485.06
2022-08-31T15:14:19.617Z,94504.22
2022-08-31T15:16:50.913Z,94497.75
2022-08-31T15:19:19.164Z,94498.06
2022-08-31T15:22:02.766Z,94492.72
2022-08-31T15:24:31.452Z,94491.06
2022-08-31T15:27:01.467Z,94481.69
2022-08-31T15:29:30.342Z,94487.50
2022-08-31T15:31:59.846Z,94487.81
2022-08-31T15:34:31.417Z,94487.09
2022-08-31T15:37:01.287Z,94479.69
2022-08-31T15:39:32.716Z,94478.25
2022-08-31T15:42:02.957Z,94485.66
2022-08-31T15:44:33.477Z,94486.66
2022-08-31T15:47:20.923Z,94477.56
2022-08-31T15:49:49.185Z,94482.13
2022-08-31T15:52:19.063Z,94473.47
2022-08-31T15:54:50.482Z,94468.72
2022-08-31T15:57:23.012Z,94471.16
2022-08-31T15:59:51.358Z,94465.91
2022-08-31T16:02:20.489Z,94459.34
2022-08-31T16:04:51.317Z,94452.91
2022-08-31T16:07:22.637Z,94449.19
2022-08-31T16:09:50.832Z,94446.59
2022-08-31T16:12:22.980Z,94443.19
2022-08-31T16:14:52.071Z,94441.38
2022-08-31T16:17:20.262Z,94442.09
2022-08-31T16:19:49.483Z,94435.50
2022-08-31T16:22:20.900Z,94426.00
2022-08-31T16:24:51.171Z,94419.72
2022-08-31T16:27:22.034Z,94414.94
2022-08-31T16:29:51.009Z,94402.75
2022-08-31T16:32:19.542Z,94397.84
2022-08-31T16:34:50.672Z,94388.31
2022-08-31T16:37:22.784Z,94387.28
2022-08-31T16:39:50.764Z,94385.34
2022-08-31T16:42:18.919Z,94382.03
2022-08-31T16:44:48.576Z,94381.88
2022-08-31T16:47:19.232Z,94380.41
2022-08-31T16:49:46.814Z,94384.25
2022-08-31T16:52:19.101Z,94384.03
2022-08-31T16:54:51.034Z,94379.75
2022-08-31T16:57:21.818Z,94373.75
2022-08-31T16:59:52.132Z,94371.09
2022-08-31T17:02:21.646Z,94369.53
2022-08-31T17:04:53.107Z,94364.75
2022-08-31T17:07:24.004Z,94360.03
2022-08-31T17:09:55.928Z,94354.47
2022-08-31T17:12:26.178Z,94355.81
2022-08-31T17:14:56.059Z,94365.25
2022-08-31T17:17:25.758Z,94367.13
2022-08-31T17:19:55.753Z,94369.75
2022-08-31T17:22:31.829Z,94372.16
2022-08-31T17:25:03.100Z,94386.44
2022-08-31T17:27:33.536Z,94388.81
2022-08-31T17:30:07.202Z,94399.31
2022-08-31T17:32:44.628Z,94394.28
2022-08-31T17:35:18.336Z,94400.34
2022-08-31T17:37:47.874Z,94401.31
2022-08-31T17:40:16.832Z,94411.03
2022-08-31T17:42:45.483Z,94413.09
2022-08-31T17:45:15.588Z,94420.47
2022-08-31T17:47:43.654Z,94418.53
2022-08-31T17:50:13.970Z,94428.81
2022-08-31T17:52:42.023Z,94431.41
2022-08-31T17:55:10.210Z,94437.28
2022-08-31T17:57:38.244Z,94436.41
2022-08-31T18:00:07.908Z,94426.66
2022-08-31T18:02:37.767Z,94435.63
2022-08-31T18:05:07.545Z,94442.41
2022-08-31T18:07:40.673Z,94447.53
2022-08-31T18:10:09.711Z,94449.88
2022-08-31T18:12:41.228Z,94446.91
2022-08-31T18:15:10.660Z,94439.69
2022-08-31T18:17:41.026Z,94437.09
2022-08-31T18:20:10.721Z,94437.09
2022-08-31T18:22:39.922Z,94431.25
2022-08-31T18:25:08.421Z,94435.16
2022-08-31T18:27:36.619Z,94438.53
2022-08-31T18:30:05.630Z,94427.16
2022-08-31T18:32:36.162Z,94428.78
2022-08-31T18:35:14.443Z,94431.66
2022-08-31T18:37:42.806Z,94426.06
2022-08-31T18:40:28.675Z,94425.59
2022-08-31T18:43:14.825Z,94434.22
2022-08-31T18:45:42.945Z,94430.13
2022-08-31T18:48:24.870Z,94426.91
2022-08-31T18:50:56.904Z,94426.47
2022-08-31T18:53:28.733Z,94414.53
2022-08-31T18:55:59.351Z,94406.84
2022-08-31T18:58:27.413Z,94416.59
2022-08-31T19:00:57.272Z,94417.47
2022-08-31T19:03:27.602Z,94411.44
2022-08-31T19:05:57.888Z,94414.56
2022-08-31T19:08:26.413Z,94408.25
2022-08-31T19:10:57.267Z,94401.22
2022-08-31T19:13:26.245Z,94395.94
2022-08-31T19:15:57.944Z,94397.78
2022-08-31T19:18:29.475Z,94391.06
2022-08-31T19:20:58.921Z,94384.63
2022-08-31T19:23:28.183Z,94382.38
2022-08-31T19:25:56.215Z,94384.94
2022-08-31T19:28:24.161Z,94376.03
2022-08-31T19:30:55.148Z,94377.78
2022-08-31T19:33:26.126Z,94367.59
2022-08-31T19:36:01.379Z,94360.03
2022-08-31T19:38:32.771Z,94354.16
2022-08-31T19:41:01.539Z,94344.06
2022-08-31T19:43:53.529Z,94358.25
2022-08-31T19:46:21.227Z,94339.47
2022-08-31T19:48:50.745Z,94357.34
2022-08-31T19:51:22.949Z,94358.91
2022-08-31T19:53:51.747Z,94356.31
2022-08-31T19:56:23.332Z,94359.09
2022-08-31T19:58:56.489Z,94351.94
2022-08-31T20:01:31.171Z,94353.91
2022-08-31T20:03:59.381Z,94358.28
2022-08-31T20:06:28.820Z,94358.38
2022-08-31T20:08:57.038Z,94367.34
2022-08-31T20:11:27.612Z,94358.53
2022-08-31T20:13:57.192Z,94368.28
2022-08-31T20:16:33.982Z,94358.75
2022-08-31T20:19:04.924Z,94357.84
2022-08-31T20:21:35.864Z,94346.16
2022-08-31T20:24:06.434Z,94347.09
2022-08-31T20:26:42.521Z,94353.34
2022-08-31T20:29:18.110Z,94357.00
2022-08-31T20:31:48.579Z,94353.53
2022-08-31T20:34:19.055Z,94359.56
2022-08-31T20:36:58.548Z,94369.03
2022-08-31T20:39:30.657Z,94367.56
2022-08-31T20:42:00.511Z,94361.00
2022-08-31T20:44:31.083Z,94361.34
2022-08-31T20:47:20.392Z,94361.81
2022-08-31T20:49:53.700Z,94358.47
2022-08-31T20:52:24.898Z,94361.59
2022-08-31T20:55:01.348Z,94364.72
2022-08-31T20:57:30.960Z,94365.03
2022-08-31T21:00:00.452Z,94356.09
2022-08-31T21:02:31.714Z,94362.03
2022-08-31T21:05:15.386Z,94355.25
2022-08-31T21:07:49.823Z,94375.56
2022-08-31T21:10:21.031Z,94367.78
2022-08-31T21:12:49.583Z,94358.63
2022-08-31T21:15:22.265Z,94363.31
2022-08-31T21:17:56.848Z,94360.91
2022-08-31T21:20:25.564Z,94357.84
2022-08-31T21:22:55.001Z,94355.56
2022-08-31T21:25:23.169Z,94361.63
2022-08-31T21:27:53.066Z,94352.47
2022-08-31T21:30:21.252Z,94367.69
2022-08-31T21:32:49.638Z,94365.25
2022-08-31T21:35:19.336Z,94368.25
2022-08-31T21:37:47.520Z,94365.16
2022-08-31T21:40:18.471Z,94364.34
2022-08-31T21:42:46.527Z,94366.88
2022-08-31T21:45:14.651Z,94370.19
2022-08-31T21:47:43.071Z,94360.13
2022-08-31T21:50:11.405Z,94365.53
2022-08-31T21:52:39.592Z,94366.59
2022-08-31T21:55:13.379Z,94362.69
2022-08-31T21:57:43.681Z,94352.03
2022-08-31T22:00:17.113Z,94358.34
2022-08-31T22:02:50.952Z,94360.50
2022-08-31T22:05:19.179Z,94357.75
2022-08-31T22:07:47.168Z,94356.25
2022-08-31T22:10:15.154Z,94355.81
2022-08-31T22:12:44.581Z,94349.63
2022-08-31T22:15:16.761Z,94344.03
2022-08-31T22:18:04.806Z,94337.94
2022-08-31T22:20:33.766Z,94327.88
2022-08-31T22:23:02.542Z,94328.09
2022-08-31T22:25:33.441Z,94320.66
2022-08-31T22:28:06.035Z,94319.84
2022-08-31T22:30:36.339Z,94319.28
2022-08-31T22:33:04.561Z,94316.63
2022-08-31T22:35:32.586Z,94312.88
2022-08-31T22:38:00.603Z,94307.50
2022-08-31T22:40:28.807Z,94295.16
2022-08-31T22:42:57.672Z,94294.91
2022-08-31T22:45:28.247Z,94292.16
2022-08-31T22:47:56.242Z,94290.13
2022-08-31T22:50:24.291Z,94292.72
2022-08-31T22:52:52.251Z,94284.41
2022-08-31T22:55:20.421Z,94285.06
2022-08-31T22:57:48.419Z,94283.69
2022-08-31T23:00:17.789Z,94288.19
2022-08-31T23:02:47.175Z,94283.94
2022-08-31T23:05:16.518Z,94281.06
2022-08-31T23:07:44.645Z,94278.09
2022-08-31T23:10:18.571Z,94277.53
2022-08-31T23:12:48.320Z,94271.09
2022-08-31T23:15:17.224Z,94277.06
2022-08-31T23:17:51.507Z,94271.91
2022-08-31T23:20:24.513Z,94270.78
2022-08-31T23:22:54.944Z,94266.31
2022-08-31T23:25:25.102Z,94268.56
2022-08-31T23:27:53.644Z,94268.25
2022-08-31T23:30:24.898Z,94272.47
2022-08-31T23:32:54.372Z,94263.00
2022-08-31T23:35:24.522Z,94253.94
2022-08-31T23:37:54.347Z,94257.31
2022-08-31T23:40:22.425Z,94254.81
2022-08-31T23:42:50.552Z,94253.06
2022-08-31T23:45:18.639Z,94254.25
2022-08-31T23:47:46.807Z,94239.13
2022-08-31T23:50:16.527Z,94241.41
2022-08-31T23:52:45.823Z,94241.75
2022-08-31T23:55:13.881Z,94240.94
2022-08-31T23:57:41.912Z,94231.78
